Aérodrome :
LOGIN :

S'inscrire | Disclaimer

   EN    FR    IT 

 










Légende :    VFR   VFR Marginal   IFR   IFR Intensif   IFR Très Intensif
Visi : 
Plafond : 
>= 8 km
>= 3000ft
5 à 8 km
1000 à 3000 ft
1500m à 5 km
500 à 1000 ft
800 à 1500m
200 à 500 ft
< 800m
< 200 ft
Symboles :   Orages  Brouillard  Fortes neiges  Fortes précipitations  Vent > 20 kt
SIGMETs :   Divers  Orages  Givrage  Turbulence  Onde Orograph.  Cendres Volcan.







- Altitude de l'aérodrome : 33 ft
- Code IATA : MHZ


EGUN - RAF Mildenhall

DERNIER METAR :
  • 251356Z AUTO 08010KT 9999 FEW180 FEW210 19/16 A3012 RMK AO2 RAB43E47 SLP203 P0000 T01920157 .

METARs EXPIRÉS :
  • 251347Z AUTO 10009KT 9999 FEW150 FEW210 19/16 A3012 RMK AO2 RAB43E47 SLP203 $
  • 251256Z AUTO 09009KT 9999 FEW095 SCT180 20/16 A3011 RMK AO2 SLP199 T01960156 $
  • 251156Z AUTO 10008KT 9999 FEW095 SCT150 SCT180 19/16 A3011 RMK AO2 SLP199 60000 T01930161 10196 20143 55000 .

TAF TAF EGUN
Valide du 25 à 12h jusqu'au 26 à 18h UTC


251159Z 2512/2618 09012KT 9999 BKN080 610809 QNH3008INS
BECMG 2517/2518 07006KT 9999 SCT010 BKN015 610809 QNH3011INS
BECMG 2521/2522 VRB06KT 6000 BR BKN005 610809 QNH3010INS
TEMPO 2600/2605 BKN003
BECMG 2607/2608 07006KT 6000 BR BKN010 QNH3009INS
BECMG 2609/2610 08009KT 9999 NSW BKN020 QNH3009INS TX20/2612Z TN13/2605Z
Pas de NOTAMs connus pour ce terrain.



MET'MAP, la Météo Aéronautique d'un coup d'oeil ! - Copyright ORBIFLY Décembre 2007 - Disclaimer

ORBIFLY MET'MAP TEAM :

Programmation & Développement : Alexandra Zaïnal
Conception & Développement : Baudouin d'Aumeries
Co-Programmation & Développement : Marc-Olivier Méhu
Soutien technique & logistique : Manuel Goepfert

Contact : metmap@orbifly.com




SOURCES & CREDITS :

   NOAA